sensor_id;sensor_type;location;lat;lon;timestamp;pressure;altitude;pressure_sealevel;temperature;humidity
60611;BME280;46439;51.164;13.572;2023-07-31T00:00:14;99838.79;;;17.81;100.00
60611;BME280;46439;51.164;13.572;2023-07-31T00:02:43;99834.18;;;17.77;100.00
60611;BME280;46439;51.164;13.572;2023-07-31T00:05:11;99833.81;;;17.79;100.00
60611;BME280;46439;51.164;13.572;2023-07-31T00:07:40;99827.02;;;17.80;100.00
60611;BME280;46439;51.164;13.572;2023-07-31T00:10:09;99823.95;;;17.76;100.00
60611;BME280;46439;51.164;13.572;2023-07-31T00:12:39;99825.69;;;17.76;100.00
60611;BME280;46439;51.164;13.572;2023-07-31T00:15:09;99822.70;;;17.78;100.00
60611;BME280;46439;51.164;13.572;2023-07-31T00:17:38;99827.44;;;17.78;100.00
60611;BME280;46439;51.164;13.572;2023-07-31T00:20:08;99821.61;;;17.77;100.00
60611;BME280;46439;51.164;13.572;2023-07-31T00:22:37;99824.04;;;17.79;100.00
60611;BME280;46439;51.164;13.572;2023-07-31T00:25:06;99825.55;;;17.81;100.00
60611;BME280;46439;51.164;13.572;2023-07-31T00:27:35;99825.17;;;17.81;100.00
60611;BME280;46439;51.164;13.572;2023-07-31T00:30:05;99820.92;;;17.73;100.00
60611;BME280;46439;51.164;13.572;2023-07-31T00:32:34;99815.77;;;17.64;100.00
60611;BME280;46439;51.164;13.572;2023-07-31T00:35:03;99814.45;;;17.55;100.00
60611;BME280;46439;51.164;13.572;2023-07-31T00:37:32;99809.83;;;17.44;100.00
60611;BME280;46439;51.164;13.572;2023-07-31T00:40:01;99802.93;;;17.42;100.00
60611;BME280;46439;51.164;13.572;2023-07-31T00:42:32;99806.01;;;17.37;100.00
60611;BME280;46439;51.164;13.572;2023-07-31T00:45:01;99805.90;;;17.28;100.00
60611;BME280;46439;51.164;13.572;2023-07-31T00:47:29;99799.55;;;17.29;100.00
60611;BME280;46439;51.164;13.572;2023-07-31T00:49:58;99799.13;;;17.21;100.00
60611;BME280;46439;51.164;13.572;2023-07-31T00:52:26;99798.73;;;17.15;100.00
60611;BME280;46439;51.164;13.572;2023-07-31T00:54:55;99798.77;;;17.14;100.00
60611;BME280;46439;51.164;13.572;2023-07-31T00:57:23;99797.17;;;17.08;100.00
60611;BME280;46439;51.164;13.572;2023-07-31T00:59:52;99799.20;;;17.13;100.00
60611;BME280;46439;51.164;13.572;2023-07-31T01:02:20;99798.13;;;17.13;100.00
60611;BME280;46439;51.164;13.572;2023-07-31T01:04:49;99794.98;;;17.12;100.00
60611;BME280;46439;51.164;13.572;2023-07-31T01:07:22;99795.27;;;17.14;100.00
60611;BME280;46439;51.164;13.572;2023-07-31T01:09:59;99793.11;;;17.13;100.00
60611;BME280;46439;51.164;13.572;2023-07-31T01:12:32;99790.58;;;17.16;100.00
60611;BME280;46439;51.164;13.572;2023-07-31T01:15:07;99788.75;;;17.19;100.00
60611;BME280;46439;51.164;13.572;2023-07-31T01:17:39;99786.44;;;17.15;100.00
60611;BME280;46439;51.164;13.572;2023-07-31T01:20:12;99781.23;;;17.11;100.00
60611;BME280;46439;51.164;13.572;2023-07-31T01:22:58;99779.46;;;17.03;100.00
60611;BME280;46439;51.164;13.572;2023-07-31T01:28:30;99773.44;;;16.94;100.00
60611;BME280;46439;51.164;13.572;2023-07-31T01:31:01;99778.59;;;16.95;100.00
60611;BME280;46439;51.164;13.572;2023-07-31T01:33:31;99781.23;;;16.95;100.00
60611;BME280;46439;51.164;13.572;2023-07-31T01:36:00;99780.23;;;16.95;100.00
60611;BME280;46439;51.164;13.572;2023-07-31T01:38:29;99779.25;;;16.95;100.00
60611;BME280;46439;51.164;13.572;2023-07-31T01:40:57;99770.45;;;16.92;100.00
60611;BME280;46439;51.164;13.572;2023-07-31T01:43:26;99767.67;;;16.87;100.00
60611;BME280;46439;51.164;13.572;2023-07-31T01:45:55;99768.73;;;16.86;100.00
60611;BME280;46439;51.164;13.572;2023-07-31T01:48:23;99766.05;;;16.84;100.00
60611;BME280;46439;51.164;13.572;2023-07-31T01:50:52;99764.09;;;16.83;100.00
60611;BME280;46439;51.164;13.572;2023-07-31T01:53:20;99766.86;;;16.76;100.00
60611;BME280;46439;51.164;13.572;2023-07-31T01:55:49;99768.60;;;16.74;100.00
60611;BME280;46439;51.164;13.572;2023-07-31T01:58:17;99763.27;;;16.85;100.00
60611;BME280;46439;51.164;13.572;2023-07-31T02:00:45;99760.87;;;16.88;100.00
60611;BME280;46439;51.164;13.572;2023-07-31T02:03:14;99760.53;;;16.87;100.00
60611;BME280;46439;51.164;13.572;2023-07-31T02:05:47;99754.14;;;16.85;100.00
60611;BME280;46439;51.164;13.572;2023-07-31T02:08:15;99753.88;;;16.86;100.00
60611;BME280;46439;51.164;13.572;2023-07-31T02:10:44;99751.91;;;16.86;100.00
60611;BME280;46439;51.164;13.572;2023-07-31T02:13:13;99753.52;;;16.88;100.00
60611;BME280;46439;51.164;13.572;2023-07-31T02:15:41;99751.82;;;16.91;100.00
60611;BME280;46439;51.164;13.572;2023-07-31T02:18:10;99753.73;;;16.93;100.00
60611;BME280;46439;51.164;13.572;2023-07-31T02:20:38;99750.06;;;16.91;100.00
60611;BME280;46439;51.164;13.572;2023-07-31T02:23:07;99747.66;;;16.91;100.00
60611;BME280;46439;51.164;13.572;2023-07-31T02:25:35;99747.17;;;16.84;100.00
60611;BME280;46439;51.164;13.572;2023-07-31T02:28:04;99746.52;;;16.89;100.00
60611;BME280;46439;51.164;13.572;2023-07-31T02:30:32;99744.05;;;16.88;100.00
60611;BME280;46439;51.164;13.572;2023-07-31T02:33:01;99745.80;;;16.94;100.00
60611;BME280;46439;51.164;13.572;2023-07-31T02:35:29;99741.59;;;16.94;100.00
60611;BME280;46439;51.164;13.572;2023-07-31T02:37:58;99741.99;;;17.00;100.00
60611;BME280;46439;51.164;13.572;2023-07-31T02:40:26;99745.06;;;16.99;100.00
60611;BME280;46439;51.164;13.572;2023-07-31T02:42:55;99748.60;;;17.06;100.00
60611;BME280;46439;51.164;13.572;2023-07-31T02:45:23;99750.64;;;17.04;100.00
60611;BME280;46439;51.164;13.572;2023-07-31T02:47:51;99747.64;;;17.01;100.00
60611;BME280;46439;51.164;13.572;2023-07-31T02:50:20;99747.52;;;17.12;100.00
60611;BME280;46439;51.164;13.572;2023-07-31T02:52:48;99746.36;;;17.18;100.00
60611;BME280;46439;51.164;13.572;2023-07-31T02:55:17;99744.58;;;17.21;100.00
60611;BME280;46439;51.164;13.572;2023-07-31T02:57:45;99740.17;;;17.23;100.00
60611;BME280;46439;51.164;13.572;2023-07-31T03:00:14;99744.11;;;17.27;100.00
60611;BME280;46439;51.164;13.572;2023-07-31T03:02:42;99749.73;;;17.29;100.00
60611;BME280;46439;51.164;13.572;2023-07-31T03:05:11;99749.86;;;17.32;100.00
60611;BME280;46439;51.164;13.572;2023-07-31T03:07:39;99751.23;;;17.32;100.00
60611;BME280;46439;51.164;13.572;2023-07-31T03:10:09;99748.08;;;17.34;100.00
60611;BME280;46439;51.164;13.572;2023-07-31T03:12:38;99750.90;;;17.33;100.00
60611;BME280;46439;51.164;13.572;2023-07-31T03:15:08;99753.48;;;17.32;100.00
60611;BME280;46439;51.164;13.572;2023-07-31T03:17:37;99752.14;;;17.31;100.00
60611;BME280;46439;51.164;13.572;2023-07-31T03:20:08;99753.32;;;17.31;100.00
60611;BME280;46439;51.164;13.572;2023-07-31T03:22:36;99753.86;;;17.30;100.00
60611;BME280;46439;51.164;13.572;2023-07-31T03:25:07;99757.08;;;17.31;100.00
60611;BME280;46439;51.164;13.572;2023-07-31T03:27:38;99755.05;;;17.34;100.00
60611;BME280;46439;51.164;13.572;2023-07-31T03:30:08;99757.29;;;17.32;100.00
60611;BME280;46439;51.164;13.572;2023-07-31T03:32:37;99762.09;;;17.32;100.00
60611;BME280;46439;51.164;13.572;2023-07-31T03:35:07;99757.29;;;17.32;100.00
60611;BME280;46439;51.164;13.572;2023-07-31T03:37:35;99755.42;;;17.26;100.00
60611;BME280;46439;51.164;13.572;2023-07-31T03:40:05;99751.15;;;17.22;100.00
60611;BME280;46439;51.164;13.572;2023-07-31T03:42:34;99753.08;;;17.17;100.00
60611;BME280;46439;51.164;13.572;2023-07-31T03:45:03;99753.08;;;17.15;100.00
60611;BME280;46439;51.164;13.572;2023-07-31T03:47:32;99751.52;;;17.12;100.00
60611;BME280;46439;51.164;13.572;2023-07-31T03:50:00;99752.29;;;17.05;100.00
60611;BME280;46439;51.164;13.572;2023-07-31T03:52:29;99757.73;;;17.03;100.00
60611;BME280;46439;51.164;13.572;2023-07-31T03:54:57;99758.95;;;17.00;100.00
60611;BME280;46439;51.164;13.572;2023-07-31T03:57:26;99765.82;;;16.96;100.00
60611;BME280;46439;51.164;13.572;2023-07-31T03:59:55;99765.02;;;16.93;100.00
60611;BME280;46439;51.164;13.572;2023-07-31T04:02:23;99764.01;;;16.92;100.00
60611;BME280;46439;51.164;13.572;2023-07-31T04:04:52;99760.54;;;16.96;100.00
60611;BME280;46439;51.164;13.572;2023-07-31T04:07:20;99756.77;;;16.98;100.00
60611;BME280;46439;51.164;13.572;2023-07-31T04:09:49;99756.31;;;16.98;100.00
60611;BME280;46439;51.164;13.572;2023-07-31T04:12:17;99748.88;;;17.00;100.00
60611;BME280;46439;51.164;13.572;2023-07-31T04:14:45;99754.65;;;17.02;100.00
60611;BME280;46439;51.164;13.572;2023-07-31T04:17:14;99752.75;;;17.02;100.00
60611;BME280;46439;51.164;13.572;2023-07-31T04:19:42;99750.24;;;17.06;100.00
60611;BME280;46439;51.164;13.572;2023-07-31T04:22:11;99742.40;;;17.09;100.00
60611;BME280;46439;51.164;13.572;2023-07-31T04:24:39;99744.32;;;17.10;100.00
60611;BME280;46439;51.164;13.572;2023-07-31T04:27:08;99738.61;;;17.09;100.00
60611;BME280;46439;51.164;13.572;2023-07-31T04:29:36;99734.38;;;17.07;100.00
60611;BME280;46439;51.164;13.572;2023-07-31T04:32:06;99729.91;;;17.06;100.00
60611;BME280;46439;51.164;13.572;2023-07-31T04:34:34;99724.52;;;17.06;100.00
60611;BME280;46439;51.164;13.572;2023-07-31T04:37:03;99725.46;;;17.08;100.00
60611;BME280;46439;51.164;13.572;2023-07-31T04:39:31;99722.64;;;17.09;100.00
60611;BME280;46439;51.164;13.572;2023-07-31T04:42:00;99714.43;;;17.06;100.00
60611;BME280;46439;51.164;13.572;2023-07-31T04:44:28;99714.29;;;17.05;100.00
60611;BME280;46439;51.164;13.572;2023-07-31T04:46:57;99709.95;;;17.03;100.00
60611;BME280;46439;51.164;13.572;2023-07-31T04:49:25;99708.89;;;17.00;100.00
60611;BME280;46439;51.164;13.572;2023-07-31T04:51:54;99708.22;;;16.96;100.00
60611;BME280;46439;51.164;13.572;2023-07-31T04:54:22;99716.32;;;16.95;100.00
60611;BME280;46439;51.164;13.572;2023-07-31T04:56:51;99712.33;;;16.98;100.00
60611;BME280;46439;51.164;13.572;2023-07-31T04:59:20;99713.02;;;16.99;100.00
60611;BME280;46439;51.164;13.572;2023-07-31T05:01:49;99711.24;;;16.99;100.00
60611;BME280;46439;51.164;13.572;2023-07-31T05:04:17;99709.40;;;16.99;100.00
60611;BME280;46439;51.164;13.572;2023-07-31T05:06:46;99706.88;;;17.00;100.00
60611;BME280;46439;51.164;13.572;2023-07-31T05:09:14;99708.76;;;17.01;100.00
60611;BME280;46439;51.164;13.572;2023-07-31T05:11:43;99704.89;;;17.05;100.00
60611;BME280;46439;51.164;13.572;2023-07-31T05:14:11;99707.11;;;17.06;100.00
60611;BME280;46439;51.164;13.572;2023-07-31T05:16:40;99703.57;;;17.10;100.00
60611;BME280;46439;51.164;13.572;2023-07-31T05:19:08;99701.27;;;17.14;100.00
60611;BME280;46439;51.164;13.572;2023-07-31T05:21:37;99703.65;;;17.22;100.00
60611;BME280;46439;51.164;13.572;2023-07-31T05:24:06;99701.69;;;17.24;100.00
60611;BME280;46439;51.164;13.572;2023-07-31T05:26:34;99697.86;;;17.28;100.00
60611;BME280;46439;51.164;13.572;2023-07-31T05:29:03;99697.63;;;17.33;100.00
60611;BME280;46439;51.164;13.572;2023-07-31T05:31:31;99689.17;;;17.35;100.00
60611;BME280;46439;51.164;13.572;2023-07-31T05:34:00;99693.13;;;17.38;100.00
60611;BME280;46439;51.164;13.572;2023-07-31T05:36:29;99697.53;;;17.41;100.00
60611;BME280;46439;51.164;13.572;2023-07-31T05:38:57;99695.04;;;17.45;100.00
60611;BME280;46439;51.164;13.572;2023-07-31T05:41:26;99692.97;;;17.46;100.00
60611;BME280;46439;51.164;13.572;2023-07-31T05:43:54;99688.34;;;17.46;100.00
60611;BME280;46439;51.164;13.572;2023-07-31T05:46:23;99690.00;;;17.45;100.00
60611;BME280;46439;51.164;13.572;2023-07-31T05:48:51;99690.34;;;17.47;100.00
60611;BME280;46439;51.164;13.572;2023-07-31T05:51:20;99692.17;;;17.49;100.00
60611;BME280;46439;51.164;13.572;2023-07-31T05:53:48;99697.62;;;17.50;100.00
60611;BME280;46439;51.164;13.572;2023-07-31T05:56:17;99694.94;;;17.52;100.00
60611;BME280;46439;51.164;13.572;2023-07-31T05:58:45;99694.11;;;17.54;100.00
60611;BME280;46439;51.164;13.572;2023-07-31T06:01:14;99695.84;;;17.57;100.00
60611;BME280;46439;51.164;13.572;2023-07-31T06:03:43;99691.31;;;17.60;100.00
60611;BME280;46439;51.164;13.572;2023-07-31T06:06:12;99696.02;;;17.60;100.00
60611;BME280;46439;51.164;13.572;2023-07-31T06:08:42;99687.71;;;17.59;100.00
60611;BME280;46439;51.164;13.572;2023-07-31T06:11:10;99688.78;;;17.61;100.00
60611;BME280;46439;51.164;13.572;2023-07-31T06:13:39;99691.55;;;17.64;100.00
60611;BME280;46439;51.164;13.572;2023-07-31T06:16:07;99691.77;;;17.66;100.00
60611;BME280;46439;51.164;13.572;2023-07-31T06:18:36;99696.13;;;17.70;100.00
60611;BME280;46439;51.164;13.572;2023-07-31T06:21:04;99696.05;;;17.73;100.00
60611;BME280;46439;51.164;13.572;2023-07-31T06:23:33;99697.07;;;17.74;100.00
60611;BME280;46439;51.164;13.572;2023-07-31T06:26:02;99701.42;;;17.76;100.00
60611;BME280;46439;51.164;13.572;2023-07-31T06:28:31;99700.65;;;17.80;100.00
60611;BME280;46439;51.164;13.572;2023-07-31T06:31:00;99702.69;;;17.81;100.00
60611;BME280;46439;51.164;13.572;2023-07-31T06:33:29;99703.88;;;17.78;100.00
60611;BME280;46439;51.164;13.572;2023-07-31T06:35:58;99706.65;;;17.83;100.00
60611;BME280;46439;51.164;13.572;2023-07-31T06:38:27;99702.48;;;17.95;100.00
60611;BME280;46439;51.164;13.572;2023-07-31T06:40:56;99701.75;;;17.93;100.00
60611;BME280;46439;51.164;13.572;2023-07-31T06:43:24;99701.22;;;17.92;100.00
60611;BME280;46439;51.164;13.572;2023-07-31T06:45:52;99693.91;;;17.97;100.00
60611;BME280;46439;51.164;13.572;2023-07-31T06:48:21;99687.44;;;18.02;100.00
60611;BME280;46439;51.164;13.572;2023-07-31T06:50:49;99685.17;;;18.05;100.00
60611;BME280;46439;51.164;13.572;2023-07-31T06:53:18;99687.75;;;18.04;100.00
60611;BME280;46439;51.164;13.572;2023-07-31T06:55:46;99688.41;;;18.10;100.00
60611;BME280;46439;51.164;13.572;2023-07-31T06:58:16;99693.87;;;18.18;100.00
60611;BME280;46439;51.164;13.572;2023-07-31T07:00:44;99697.98;;;18.21;100.00
60611;BME280;46439;51.164;13.572;2023-07-31T07:03:13;99698.32;;;18.31;100.00
60611;BME280;46439;51.164;13.572;2023-07-31T07:05:43;99697.08;;;18.38;100.00
60611;BME280;46439;51.164;13.572;2023-07-31T07:08:11;99698.88;;;18.45;100.00
60611;BME280;46439;51.164;13.572;2023-07-31T07:10:40;99698.05;;;18.52;100.00
60611;BME280;46439;51.164;13.572;2023-07-31T07:13:08;99697.73;;;18.59;100.00
60611;BME280;46439;51.164;13.572;2023-07-31T07:15:37;99696.98;;;18.65;100.00
60611;BME280;46439;51.164;13.572;2023-07-31T07:18:06;99693.77;;;18.73;100.00
60611;BME280;46439;51.164;13.572;2023-07-31T07:20:35;99694.11;;;18.80;100.00
60611;BME280;46439;51.164;13.572;2023-07-31T07:23:03;99696.36;;;18.84;100.00
60611;BME280;46439;51.164;13.572;2023-07-31T07:25:32;99691.84;;;18.92;100.00
60611;BME280;46439;51.164;13.572;2023-07-31T07:28:00;99692.11;;;18.97;100.00
60611;BME280;46439;51.164;13.572;2023-07-31T07:30:29;99693.70;;;19.06;100.00
60611;BME280;46439;51.164;13.572;2023-07-31T07:32:57;99692.02;;;19.12;100.00
60611;BME280;46439;51.164;13.572;2023-07-31T07:35:26;99692.80;;;19.20;100.00
60611;BME280;46439;51.164;13.572;2023-07-31T07:37:55;99694.11;;;19.30;100.00
60611;BME280;46439;51.164;13.572;2023-07-31T07:40:24;99695.67;;;19.34;100.00
60611;BME280;46439;51.164;13.572;2023-07-31T07:42:52;99695.91;;;19.47;100.00
60611;BME280;46439;51.164;13.572;2023-07-31T07:45:21;99701.23;;;19.50;100.00
60611;BME280;46439;51.164;13.572;2023-07-31T07:47:49;99703.77;;;19.53;100.00
60611;BME280;46439;51.164;13.572;2023-07-31T07:50:18;99702.91;;;19.56;100.00
60611;BME280;46439;51.164;13.572;2023-07-31T07:52:47;99706.40;;;19.52;100.00
60611;BME280;46439;51.164;13.572;2023-07-31T07:55:15;99701.46;;;19.54;100.00
60611;BME280;46439;51.164;13.572;2023-07-31T07:57:44;99711.47;;;19.61;100.00
60611;BME280;46439;51.164;13.572;2023-07-31T08:00:15;99707.02;;;19.63;100.00
60611;BME280;46439;51.164;13.572;2023-07-31T08:02:45;99705.16;;;19.66;100.00
60611;BME280;46439;51.164;13.572;2023-07-31T08:05:14;99707.62;;;19.72;100.00
60611;BME280;46439;51.164;13.572;2023-07-31T08:07:42;99708.56;;;19.77;100.00
60611;BME280;46439;51.164;13.572;2023-07-31T08:10:11;99705.09;;;19.88;100.00
60611;BME280;46439;51.164;13.572;2023-07-31T08:12:39;99702.01;;;19.90;100.00
60611;BME280;46439;51.164;13.572;2023-07-31T08:15:10;99708.84;;;19.93;100.00
60611;BME280;46439;51.164;13.572;2023-07-31T08:17:38;99708.70;;;19.99;100.00
60611;BME280;46439;51.164;13.572;2023-07-31T08:20:09;99708.14;;;20.05;100.00
60611;BME280;46439;51.164;13.572;2023-07-31T08:22:44;99709.44;;;20.11;100.00
60611;BME280;46439;51.164;13.572;2023-07-31T08:25:13;99703.85;;;20.11;100.00
60611;BME280;46439;51.164;13.572;2023-07-31T08:27:44;99707.95;;;20.13;100.00
60611;BME280;46439;51.164;13.572;2023-07-31T08:30:13;99710.90;;;20.15;100.00
60611;BME280;46439;51.164;13.572;2023-07-31T08:32:42;99711.70;;;20.14;100.00
60611;BME280;46439;51.164;13.572;2023-07-31T08:35:10;99712.40;;;20.17;100.00
60611;BME280;46439;51.164;13.572;2023-07-31T08:37:39;99711.59;;;20.20;100.00
60611;BME280;46439;51.164;13.572;2023-07-31T08:40:10;99710.35;;;20.22;100.00
60611;BME280;46439;51.164;13.572;2023-07-31T08:42:46;99707.88;;;20.22;100.00
60611;BME280;46439;51.164;13.572;2023-07-31T08:45:22;99708.73;;;20.23;100.00
60611;BME280;46439;51.164;13.572;2023-07-31T08:47:51;99713.40;;;20.21;100.00
60611;BME280;46439;51.164;13.572;2023-07-31T08:50:21;99707.26;;;20.21;100.00
60611;BME280;46439;51.164;13.572;2023-07-31T08:52:51;99709.63;;;20.19;100.00
60611;BME280;46439;51.164;13.572;2023-07-31T08:55:20;99703.41;;;20.23;100.00
60611;BME280;46439;51.164;13.572;2023-07-31T08:57:52;99705.16;;;20.24;100.00
60611;BME280;46439;51.164;13.572;2023-07-31T09:00:22;99708.42;;;20.32;100.00
60611;BME280;46439;51.164;13.572;2023-07-31T09:02:57;99706.80;;;20.33;100.00
60611;BME280;46439;51.164;13.572;2023-07-31T09:05:29;99702.59;;;20.34;100.00
60611;BME280;46439;51.164;13.572;2023-07-31T09:07:58;99702.66;;;20.31;100.00
60611;BME280;46439;51.164;13.572;2023-07-31T09:10:26;99701.59;;;20.29;100.00
60611;BME280;46439;51.164;13.572;2023-07-31T09:12:56;99694.88;;;20.28;100.00
60611;BME280;46439;51.164;13.572;2023-07-31T09:15:27;99695.17;;;20.29;100.00
60611;BME280;46439;51.164;13.572;2023-07-31T09:18:02;99693.42;;;20.29;100.00
60611;BME280;46439;51.164;13.572;2023-07-31T09:20:31;99686.91;;;20.28;100.00
60611;BME280;46439;51.164;13.572;2023-07-31T09:23:07;99680.63;;;20.25;100.00
60611;BME280;46439;51.164;13.572;2023-07-31T09:25:37;99689.97;;;20.23;100.00
60611;BME280;46439;51.164;13.572;2023-07-31T09:28:07;99683.83;;;20.22;100.00
60611;BME280;46439;51.164;13.572;2023-07-31T09:30:47;99685.42;;;20.26;100.00
60611;BME280;46439;51.164;13.572;2023-07-31T09:33:17;99681.21;;;20.25;100.00
60611;BME280;46439;51.164;13.572;2023-07-31T09:35:46;99679.25;;;20.28;100.00
60611;BME280;46439;51.164;13.572;2023-07-31T09:38:16;99678.65;;;20.31;100.00
60611;BME280;46439;51.164;13.572;2023-07-31T09:40:48;99676.64;;;20.36;100.00
60611;BME280;46439;51.164;13.572;2023-07-31T09:43:19;99677.29;;;20.40;100.00
60611;BME280;46439;51.164;13.572;2023-07-31T09:45:48;99676.35;;;20.42;100.00
60611;BME280;46439;51.164;13.572;2023-07-31T09:48:18;99677.70;;;20.48;100.00
60611;BME280;46439;51.164;13.572;2023-07-31T09:50:48;99683.50;;;20.53;100.00
60611;BME280;46439;51.164;13.572;2023-07-31T09:53:17;99686.95;;;20.57;100.00
60611;BME280;46439;51.164;13.572;2023-07-31T09:55:46;99687.54;;;20.62;100.00
60611;BME280;46439;51.164;13.572;2023-07-31T09:58:14;99684.23;;;20.65;100.00
60611;BME280;46439;51.164;13.572;2023-07-31T10:00:43;99687.16;;;20.69;100.00
60611;BME280;46439;51.164;13.572;2023-07-31T10:03:12;99687.20;;;20.72;100.00
60611;BME280;46439;51.164;13.572;2023-07-31T10:05:45;99682.39;;;20.75;100.00
60611;BME280;46439;51.164;13.572;2023-07-31T10:08:18;99685.02;;;20.80;100.00
60611;BME280;46439;51.164;13.572;2023-07-31T10:10:48;99677.52;;;20.82;100.00
60611;BME280;46439;51.164;13.572;2023-07-31T10:13:17;99675.35;;;20.84;100.00
60611;BME280;46439;51.164;13.572;2023-07-31T10:15:47;99675.60;;;20.91;100.00
60611;BME280;46439;51.164;13.572;2023-07-31T10:18:16;99670.85;;;20.97;100.00
60611;BME280;46439;51.164;13.572;2023-07-31T10:20:47;99668.36;;;20.99;100.00
60611;BME280;46439;51.164;13.572;2023-07-31T10:23:17;99665.08;;;21.06;100.00
60611;BME280;46439;51.164;13.572;2023-07-31T10:25:46;99659.69;;;21.12;100.00
60611;BME280;46439;51.164;13.572;2023-07-31T10:28:15;99656.39;;;21.17;100.00
60611;BME280;46439;51.164;13.572;2023-07-31T10:30:44;99656.11;;;21.21;100.00
60611;BME280;46439;51.164;13.572;2023-07-31T10:33:13;99655.48;;;21.24;100.00
60611;BME280;46439;51.164;13.572;2023-07-31T10:35:42;99650.92;;;21.28;100.00
60611;BME280;46439;51.164;13.572;2023-07-31T10:38:13;99650.21;;;21.28;100.00
60611;BME280;46439;51.164;13.572;2023-07-31T10:40:42;99650.98;;;21.33;100.00
60611;BME280;46439;51.164;13.572;2023-07-31T10:43:25;99648.72;;;21.37;100.00
60611;BME280;46439;51.164;13.572;2023-07-31T10:45:58;99650.69;;;21.42;100.00
60611;BME280;46439;51.164;13.572;2023-07-31T10:48:34;99651.39;;;21.44;100.00
60611;BME280;46439;51.164;13.572;2023-07-31T10:51:08;99652.77;;;21.45;100.00
60611;BME280;46439;51.164;13.572;2023-07-31T10:53:41;99648.55;;;21.49;100.00
60611;BME280;46439;51.164;13.572;2023-07-31T10:56:10;99646.74;;;21.55;100.00
60611;BME280;46439;51.164;13.572;2023-07-31T10:58:45;99646.12;;;21.58;100.00
60611;BME280;46439;51.164;13.572;2023-07-31T11:01:16;99638.84;;;21.60;100.00
60611;BME280;46439;51.164;13.572;2023-07-31T11:03:45;99634.90;;;21.61;100.00
60611;BME280;46439;51.164;13.572;2023-07-31T11:06:15;99626.00;;;21.63;100.00
60611;BME280;46439;51.164;13.572;2023-07-31T11:08:45;99624.08;;;21.62;100.00
60611;BME280;46439;51.164;13.572;2023-07-31T11:11:15;99622.48;;;21.62;100.00
60611;BME280;46439;51.164;13.572;2023-07-31T11:13:46;99616.64;;;21.60;100.00
60611;BME280;46439;51.164;13.572;2023-07-31T11:16:20;99617.52;;;21.59;100.00
60611;BME280;46439;51.164;13.572;2023-07-31T11:18:49;99612.48;;;21.56;100.00
60611;BME280;46439;51.164;13.572;2023-07-31T11:21:21;99615.33;;;21.54;100.00
60611;BME280;46439;51.164;13.572;2023-07-31T11:23:51;99616.98;;;21.57;100.00
60611;BME280;46439;51.164;13.572;2023-07-31T11:26:20;99620.30;;;21.63;100.00
60611;BME280;46439;51.164;13.572;2023-07-31T11:28:50;99612.21;;;21.69;100.00
60611;BME280;46439;51.164;13.572;2023-07-31T11:31:19;99613.34;;;21.71;100.00
60611;BME280;46439;51.164;13.572;2023-07-31T11:33:49;99606.07;;;21.75;100.00
60611;BME280;46439;51.164;13.572;2023-07-31T11:36:18;99605.62;;;21.81;100.00
60611;BME280;46439;51.164;13.572;2023-07-31T11:38:47;99595.10;;;21.92;100.00
60611;BME280;46439;51.164;13.572;2023-07-31T11:41:17;99596.20;;;21.98;100.00
60611;BME280;46439;51.164;13.572;2023-07-31T11:43:46;99593.00;;;22.03;100.00
60611;BME280;46439;51.164;13.572;2023-07-31T11:46:15;99589.40;;;22.16;100.00
60611;BME280;46439;51.164;13.572;2023-07-31T11:48:44;99586.73;;;22.25;100.00
60611;BME280;46439;51.164;13.572;2023-07-31T11:51:14;99581.86;;;22.34;100.00
60611;BME280;46439;51.164;13.572;2023-07-31T11:53:45;99577.23;;;22.42;100.00
60611;BME280;46439;51.164;13.572;2023-07-31T11:56:16;99571.87;;;22.49;100.00
60611;BME280;46439;51.164;13.572;2023-07-31T11:58:48;99569.49;;;22.57;100.00
60611;BME280;46439;51.164;13.572;2023-07-31T12:01:19;99564.04;;;22.65;100.00
60611;BME280;46439;51.164;13.572;2023-07-31T12:03:51;99553.91;;;22.77;100.00
60611;BME280;46439;51.164;13.572;2023-07-31T12:06:18;99545.87;;;22.95;100.00
60611;BME280;46439;51.164;13.572;2023-07-31T12:08:49;99542.98;;;23.17;100.00
60611;BME280;46439;51.164;13.572;2023-07-31T12:11:18;99537.40;;;23.39;100.00
60611;BME280;46439;51.164;13.572;2023-07-31T12:13:46;99530.57;;;23.61;100.00
60611;BME280;46439;51.164;13.572;2023-07-31T12:16:14;99524.47;;;23.78;100.00
60611;BME280;46439;51.164;13.572;2023-07-31T12:18:43;99522.05;;;23.88;100.00
60611;BME280;46439;51.164;13.572;2023-07-31T12:21:12;99518.41;;;23.93;100.00
60611;BME280;46439;51.164;13.572;2023-07-31T12:23:43;99497.34;;;24.00;100.00
60611;BME280;46439;51.164;13.572;2023-07-31T12:26:13;99475.83;;;24.02;100.00
60611;BME280;46439;51.164;13.572;2023-07-31T12:28:44;99467.05;;;24.05;100.00
60611;BME280;46439;51.164;13.572;2023-07-31T12:31:15;99469.92;;;24.03;100.00
60611;BME280;46439;51.164;13.572;2023-07-31T12:33:46;99472.58;;;24.01;100.00
60611;BME280;46439;51.164;13.572;2023-07-31T12:36:17;99469.72;;;24.01;100.00
60611;BME280;46439;51.164;13.572;2023-07-31T12:38:46;99470.88;;;24.01;100.00
60611;BME280;46439;51.164;13.572;2023-07-31T12:41:14;99460.95;;;24.00;100.00
60611;BME280;46439;51.164;13.572;2023-07-31T12:43:44;99459.00;;;24.03;100.00
60611;BME280;46439;51.164;13.572;2023-07-31T12:46:13;99453.59;;;24.05;100.00
60611;BME280;46439;51.164;13.572;2023-07-31T12:48:42;99450.83;;;24.09;100.00
60611;BME280;46439;51.164;13.572;2023-07-31T12:51:11;99451.52;;;24.13;100.00
60611;BME280;46439;51.164;13.572;2023-07-31T12:53:39;99443.92;;;24.25;100.00